Time;durP1;ratioP1;P1;durP2;ratioP2;P2;SDS_P1;SDS_P2;PMS_P1;PMS_P2;Temp;Humidity;BMP_temperature;BMP_pressure;BME280_temperature;BME280_humidity;BME280_pressure;Samples;Min_cycle;Max_cycle;Signal;HPM_P1;HPM_P2
2024/01/14 00:01:23;;;;;;;8.70;5.10;;;;;;;-2.98;82.22;95752.37;108657;1267;22552;-76
2024/01/14 00:03:54;;;;;;;9.80;6.00;;;;;;;-2.98;82.30;95738.36;108634;1267;25400;-77
2024/01/14 00:06:28;;;;;;;7.60;5.40;;;;;;;-3.00;82.36;95737.11;108630;1273;22532;-77
2024/01/14 00:09:07;;;;;;;5.90;4.30;;;;;;;-3.01;82.45;95737.67;108598;1273;22524;-77
2024/01/14 00:11:39;;;;;;;7.20;3.90;;;;;;;-3.01;82.47;95731.59;108603;1267;24996;-77
2024/01/14 00:14:11;;;;;;;7.30;4.10;;;;;;;-3.03;82.55;95734.60;108644;1274;25372;-77
2024/01/14 00:16:43;;;;;;;7.80;5.00;;;;;;;-3.05;82.75;95731.02;108626;1274;22634;-77
2024/01/14 00:19:24;;;;;;;8.80;5.00;;;;;;;-3.04;82.82;95727.10;108591;1273;43691;-77
2024/01/14 00:21:58;;;;;;;7.00;5.00;;;;;;;-3.03;82.91;95720.80;108623;1273;25410;-77
2024/01/14 00:24:33;;;;;;;6.60;4.10;;;;;;;-3.00;83.18;95714.16;108631;1274;25228;-77
2024/01/14 00:27:04;;;;;;;8.90;5.80;;;;;;;-2.96;82.92;95710.31;108640;1269;22930;-77
2024/01/14 00:29:36;;;;;;;9.40;5.70;;;;;;;-2.95;83.12;95720.33;108644;1273;23319;-78
2024/01/14 00:32:11;;;;;;;7.80;5.40;;;;;;;-2.95;83.15;95717.21;108665;1274;23547;-78
2024/01/14 00:34:45;;;;;;;5.60;4.30;;;;;;;-2.96;83.13;95717.93;108660;1266;22606;-78
2024/01/14 00:37:17;;;;;;;8.10;5.10;;;;;;;-2.98;83.14;95705.90;108863;1273;22946;-77
2024/01/14 00:39:48;;;;;;;13.50;6.20;;;;;;;-2.97;83.38;95701.22;108754;1273;22540;-78
2024/01/14 00:42:19;;;;;;;10.40;6.30;;;;;;;-2.98;83.53;95706.02;108772;1266;22562;-77
2024/01/14 00:44:53;;;;;;;10.80;5.60;;;;;;;-2.99;83.78;95712.16;108732;1268;22560;-78
2024/01/14 00:47:30;;;;;;;6.50;4.80;;;;;;;-2.99;83.57;95713.72;108725;1274;22534;-77
2024/01/14 00:50:01;;;;;;;6.70;4.10;;;;;;;-2.96;83.67;95717.45;108562;1273;193725;-78
2024/01/14 00:52:38;;;;;;;7.90;5.70;;;;;;;-2.93;83.86;95712.65;108740;1267;25291;-77
2024/01/14 00:55:11;;;;;;;8.50;5.60;;;;;;;-2.91;83.79;95707.16;108644;1267;22622;-77
2024/01/14 00:57:42;;;;;;;7.30;4.70;;;;;;;-2.92;83.95;95706.20;108661;1267;22551;-77
2024/01/14 01:00:14;;;;;;;7.80;5.00;;;;;;;-2.90;83.91;95709.83;108662;1266;22788;-77
2024/01/14 01:02:45;;;;;;;7.00;4.40;;;;;;;-2.87;83.93;95704.23;108685;1267;22614;-77
2024/01/14 01:05:17;;;;;;;6.90;4.70;;;;;;;-2.86;83.98;95702.78;108658;1266;22718;-77
2024/01/14 01:07:51;;;;;;;7.40;5.50;;;;;;;-2.85;84.06;95698.54;108674;1274;22517;-77
2024/01/14 01:10:25;;;;;;;7.80;4.90;;;;;;;-2.82;84.08;95694.52;108608;1269;22548;-77
2024/01/14 01:12:58;;;;;;;8.10;5.10;;;;;;;-2.81;84.04;95689.50;108666;1270;22546;-77
2024/01/14 01:15:32;;;;;;;7.80;5.60;;;;;;;-2.81;84.03;95685.31;108614;1274;25238;-77
2024/01/14 01:18:05;;;;;;;8.40;5.00;;;;;;;-2.84;84.15;95677.66;108673;1273;22524;-77
2024/01/14 01:20:37;;;;;;;7.10;4.60;;;;;;;-2.85;83.96;95674.48;108683;1274;22540;-77
2024/01/14 01:23:10;;;;;;;8.00;5.40;;;;;;;-2.84;84.16;95669.95;108703;1273;22558;-77
2024/01/14 01:25:41;;;;;;;7.70;4.90;;;;;;;-2.79;84.26;95665.13;108698;1267;22517;-77
2024/01/14 01:28:13;;;;;;;8.10;5.40;;;;;;;-2.78;84.36;95664.27;108655;1273;22697;-77
2024/01/14 01:30:44;;;;;;;7.70;5.20;;;;;;;-2.78;84.45;95662.55;108598;1267;22518;-78
2024/01/14 01:33:16;;;;;;;6.80;4.40;;;;;;;-2.80;84.49;95661.27;108692;1269;22539;-77
2024/01/14 01:35:47;;;;;;;4.70;3.60;;;;;;;-2.80;84.57;95657.48;108657;1267;22541;-77
2024/01/14 01:38:18;;;;;;;7.70;5.00;;;;;;;-2.80;84.53;95658.60;108642;1272;22517;-77
2024/01/14 01:40:49;;;;;;;8.30;5.30;;;;;;;-2.78;84.83;95653.32;108673;1270;22542;-77
2024/01/14 01:43:21;;;;;;;9.20;5.80;;;;;;;-2.79;84.93;95644.70;108648;1270;22537;-77
2024/01/14 01:45:58;;;;;;;7.30;5.30;;;;;;;-2.81;84.96;95649.00;108715;1273;22542;-77
2024/01/14 01:48:29;;;;;;;7.50;4.90;;;;;;;-2.81;84.88;95648.47;108665;1273;22550;-78
2024/01/14 01:51:01;;;;;;;7.00;4.40;;;;;;;-2.82;84.99;95646.00;108666;1266;26587;-78
2024/01/14 01:53:34;;;;;;;7.00;4.80;;;;;;;-2.83;85.09;95640.94;108671;1273;22536;-77
2024/01/14 01:56:07;;;;;;;7.60;5.50;;;;;;;-2.82;85.29;95639.62;108663;1273;25389;-77
2024/01/14 01:58:39;;;;;;;9.10;5.90;;;;;;;-2.79;85.24;95634.05;108648;1273;22560;-77
2024/01/14 02:01:11;;;;;;;8.40;5.70;;;;;;;-2.79;85.33;95619.80;108700;1273;22516;-78
2024/01/14 02:03:42;;;;;;;6.70;4.50;;;;;;;-2.80;85.23;95615.11;108659;1273;24279;-78
2024/01/14 02:06:15;;;;;;;8.70;5.40;;;;;;;-2.82;85.25;95611.25;108694;1266;24249;-78
2024/01/14 02:08:50;;;;;;;7.30;4.60;;;;;;;-2.84;85.34;95610.35;108641;1266;22528;-78
2024/01/14 02:11:22;;;;;;;6.80;4.50;;;;;;;-2.86;85.38;95607.80;108661;1273;22544;-78
2024/01/14 02:13:55;;;;;;;7.20;4.40;;;;;;;-2.88;85.33;95606.21;108623;1273;22536;-77
2024/01/14 02:16:26;;;;;;;5.60;3.70;;;;;;;-2.90;85.50;95601.49;108685;1273;22526;-77
2024/01/14 02:18:57;;;;;;;5.70;4.50;;;;;;;-2.90;85.69;95601.34;108609;1270;22543;-77
2024/01/14 02:21:36;;;;;;;7.10;4.30;;;;;;;-2.89;85.71;95590.88;108698;1269;25424;-78
2024/01/14 02:24:21;;;;;;;7.30;4.80;;;;;;;-2.88;85.67;95583.89;108681;1268;22499;-78
2024/01/14 02:26:55;;;;;;;7.10;5.20;;;;;;;-2.93;86.17;95585.86;108677;1273;22528;-78
2024/01/14 02:29:30;;;;;;;8.20;4.40;;;;;;;-2.96;86.22;95583.06;108663;1266;22639;-78
2024/01/14 02:32:01;;;;;;;4.90;3.70;;;;;;;-2.96;86.19;95586.16;108699;1273;22547;-77
2024/01/14 02:34:35;;;;;;;5.30;3.90;;;;;;;-2.94;86.39;95586.45;108673;1273;25264;-77
2024/01/14 02:37:06;;;;;;;5.40;3.80;;;;;;;-2.91;86.29;95578.54;108651;1267;22537;-78
2024/01/14 02:39:38;;;;;;;7.30;5.00;;;;;;;-2.90;86.23;95584.79;108598;1271;22956;-78
2024/01/14 02:42:09;;;;;;;6.70;4.40;;;;;;;-2.89;86.13;95585.94;108651;1273;22535;-78
2024/01/14 02:44:40;;;;;;;7.50;4.80;;;;;;;-2.91;86.37;95575.54;108685;1266;22939;-77
2024/01/14 02:47:12;;;;;;;5.50;3.60;;;;;;;-2.92;86.37;95573.33;108657;1273;22548;-77
2024/01/14 02:49:43;;;;;;;6.50;4.00;;;;;;;-2.91;86.44;95577.59;108685;1274;22524;-77
2024/01/14 02:52:14;;;;;;;5.50;3.80;;;;;;;-2.89;86.56;95573.09;108651;1274;25161;-77
2024/01/14 02:54:48;;;;;;;5.40;3.00;;;;;;;-2.87;86.67;95568.15;108683;1260;22549;-77
2024/01/14 02:57:19;;;;;;;4.30;3.10;;;;;;;-2.84;86.74;95559.20;108691;1274;22521;-77
2024/01/14 02:59:50;;;;;;;4.90;3.90;;;;;;;-2.82;86.69;95560.85;108609;1273;23551;-77
2024/01/14 03:02:21;;;;;;;4.70;3.70;;;;;;;-2.82;86.69;95559.53;108648;1269;22521;-77
2024/01/14 03:04:53;;;;;;;5.40;3.60;;;;;;;-2.79;86.77;95548.83;108676;1274;22570;-78
2024/01/14 03:07:24;;;;;;;4.90;4.20;;;;;;;-2.80;86.65;95546.43;108671;1267;22618;-78
2024/01/14 03:09:55;;;;;;;5.80;3.40;;;;;;;-2.79;86.75;95540.52;108606;1274;25838;-78
2024/01/14 03:12:29;;;;;;;6.10;4.10;;;;;;;-2.78;86.77;95531.95;108637;1270;22573;-78
2024/01/14 03:15:01;;;;;;;6.20;4.20;;;;;;;-2.78;86.75;95534.03;108603;1270;22550;-77
2024/01/14 03:17:40;;;;;;;6.10;3.90;;;;;;;-2.76;86.57;95525.39;108674;1274;22525;-78
2024/01/14 03:20:13;;;;;;;6.20;3.80;;;;;;;-2.75;86.59;95526.14;108671;1273;22533;-78
2024/01/14 03:22:44;;;;;;;5.20;3.60;;;;;;;-2.76;86.61;95521.25;108639;1273;22542;-77
2024/01/14 03:25:16;;;;;;;5.20;3.30;;;;;;;-2.77;86.58;95520.34;108647;1274;22515;-78
2024/01/14 03:27:47;;;;;;;4.80;3.50;;;;;;;-2.79;86.67;95525.52;108611;1270;22532;-78
2024/01/14 03:30:18;;;;;;;6.70;4.00;;;;;;;-2.80;86.59;95523.43;108597;1270;22557;-78
2024/01/14 03:32:52;;;;;;;5.10;3.80;;;;;;;-2.79;86.53;95519.09;108622;1274;25376;-78
2024/01/14 03:35:24;;;;;;;4.70;3.50;;;;;;;-2.79;86.73;95515.07;108687;1267;25259;-78
2024/01/14 03:37:54;;;;;;;4.60;3.10;;;;;;;-2.79;86.62;95520.20;108597;1273;22618;-77
2024/01/14 03:40:25;;;;;;;4.60;3.40;;;;;;;-2.78;86.73;95514.81;108640;1267;24223;-77
2024/01/14 03:42:57;;;;;;;6.60;3.90;;;;;;;-2.79;86.56;95513.04;108654;1274;25300;-78
2024/01/14 03:45:30;;;;;;;4.70;3.50;;;;;;;-2.81;86.53;95515.69;108668;1273;22546;-78
2024/01/14 03:48:10;;;;;;;5.30;3.80;;;;;;;-2.82;86.61;95513.10;108626;1274;22589;-78
2024/01/14 03:50:41;;;;;;;5.90;4.40;;;;;;;-2.83;86.80;95507.41;108517;1274;25436;-78
2024/01/14 03:53:12;;;;;;;4.80;3.40;;;;;;;-2.86;86.78;95501.55;108484;1276;22527;-78
2024/01/14 03:55:50;;;;;;;5.90;3.70;;;;;;;-2.88;86.80;95499.38;108480;1265;22533;-77
2024/01/14 03:58:23;;;;;;;4.90;3.50;;;;;;;-2.88;86.91;95489.92;108517;1266;22567;-78
2024/01/14 04:00:56;;;;;;;4.30;3.40;;;;;;;-2.90;87.21;95480.82;108662;1273;25285;-78
2024/01/14 04:03:30;;;;;;;4.60;3.60;;;;;;;-2.90;87.17;95486.25;108656;1274;22710;-78
2024/01/14 04:06:08;;;;;;;3.60;2.80;;;;;;;-2.91;87.27;95472.69;108649;1273;22549;-78
2024/01/14 04:08:42;;;;;;;6.00;3.90;;;;;;;-2.91;87.34;95463.40;108581;1274;23391;-78
2024/01/14 04:11:19;;;;;;;5.70;3.90;;;;;;;-2.93;87.45;95464.29;108662;1274;22534;-78
2024/01/14 04:13:50;;;;;;;6.30;3.80;;;;;;;-2.92;87.48;95467.85;108631;1274;22567;-78
2024/01/14 04:16:21;;;;;;;4.50;3.50;;;;;;;-2.89;87.66;95471.60;108640;1274;24343;-78
2024/01/14 04:18:56;;;;;;;4.80;3.30;;;;;;;-2.84;87.80;95463.30;108631;1274;22534;-78
2024/01/14 04:21:30;;;;;;;5.70;3.80;;;;;;;-2.79;87.85;95456.75;108640;1274;22530;-78
2024/01/14 04:24:02;;;;;;;5.50;3.30;;;;;;;-2.75;87.69;95459.90;108627;1274;26560;-78
2024/01/14 04:26:33;;;;;;;5.60;3.50;;;;;;;-2.72;87.69;95461.95;108645;1274;25421;-78
2024/01/14 04:29:04;;;;;;;5.80;3.70;;;;;;;-2.64;87.84;95456.70;108677;1267;22530;-77
2024/01/14 04:31:35;;;;;;;6.00;4.10;;;;;;;-2.59;87.72;95452.50;108662;1269;22620;-77
2024/01/14 04:34:06;;;;;;;4.90;3.70;;;;;;;-2.60;87.67;95448.21;108682;1269;22908;-78
2024/01/14 04:36:37;;;;;;;5.00;3.30;;;;;;;-2.58;87.91;95447.89;108654;1273;22542;-78
2024/01/14 04:39:08;;;;;;;6.90;4.60;;;;;;;-2.50;88.05;95447.41;108688;1274;22596;-78
2024/01/14 04:41:39;;;;;;;5.20;4.00;;;;;;;-2.39;87.91;95453.89;108669;1267;22524;-78
2024/01/14 04:44:10;;;;;;;5.80;3.40;;;;;;;-2.31;87.52;95455.43;108686;1274;24303;-78
2024/01/14 04:46:44;;;;;;;7.40;4.60;;;;;;;-2.28;87.45;95453.63;108626;1266;22542;-78
2024/01/14 04:49:15;;;;;;;6.80;4.20;;;;;;;-2.30;87.29;95453.38;108694;1273;22524;-78
2024/01/14 04:51:46;;;;;;;8.80;5.40;;;;;;;-2.32;87.25;95446.95;108662;1267;22605;-78
2024/01/14 04:54:17;;;;;;;9.50;4.60;;;;;;;-2.33;87.18;95443.42;108659;1274;22527;-78
2024/01/14 04:56:48;;;;;;;8.40;5.20;;;;;;;-2.35;87.15;95453.56;108673;1266;22523;-78
2024/01/14 04:59:20;;;;;;;7.80;5.00;;;;;;;-2.39;87.11;95449.08;108704;1269;22532;-78
2024/01/14 05:01:53;;;;;;;8.10;5.90;;;;;;;-2.45;87.04;95440.10;108704;1274;22627;-78
2024/01/14 05:04:24;;;;;;;7.00;4.70;;;;;;;-2.52;87.57;95427.29;108914;1274;22533;-76
2024/01/14 05:06:55;;;;;;;8.10;5.70;;;;;;;-2.57;87.72;95432.94;108905;1274;22513;-78
2024/01/14 05:09:26;;;;;;;6.80;3.40;;;;;;;-2.58;88.09;95432.69;108758;1274;22554;-78
2024/01/14 05:11:57;;;;;;;9.20;5.90;;;;;;;-2.61;88.02;95441.20;108726;1274;22525;-78
2024/01/14 05:14:28;;;;;;;9.30;5.70;;;;;;;-2.62;88.30;95440.70;108743;1274;25376;-77
2024/01/14 05:16:59;;;;;;;9.20;6.10;;;;;;;-2.63;88.33;95445.20;108650;1266;22520;-77
2024/01/14 05:19:30;;;;;;;8.60;5.70;;;;;;;-2.63;88.47;95449.35;108643;1272;25243;-77
2024/01/14 05:22:01;;;;;;;8.20;6.20;;;;;;;-2.64;88.32;95436.94;108683;1274;22534;-77
2024/01/14 05:24:31;;;;;;;8.90;5.30;;;;;;;-2.62;88.29;95428.25;108646;1269;22583;-77
2024/01/14 05:27:02;;;;;;;8.40;5.70;;;;;;;-2.58;88.34;95420.51;108664;1274;22763;-78
2024/01/14 05:29:34;;;;;;;8.00;4.90;;;;;;;-2.56;88.51;95428.54;108617;1274;25386;-77
2024/01/14 05:32:05;;;;;;;6.90;5.10;;;;;;;-2.58;88.40;95420.27;108653;1274;25360;-77
2024/01/14 05:34:36;;;;;;;10.30;6.00;;;;;;;-2.58;88.12;95425.95;108699;1273;22528;-78
2024/01/14 05:37:09;;;;;;;11.40;7.10;;;;;;;-2.59;88.34;95422.92;108684;1273;24926;-77
2024/01/14 05:39:40;;;;;;;9.80;7.10;;;;;;;-2.62;88.71;95427.64;108597;1273;22597;-78
2024/01/14 05:42:11;;;;;;;10.50;6.80;;;;;;;-2.63;88.64;95425.86;108676;1269;26300;-77
2024/01/14 05:44:42;;;;;;;10.70;7.60;;;;;;;-2.64;88.79;95426.45;108741;1266;22589;-77
2024/01/14 05:47:13;;;;;;;9.80;6.10;;;;;;;-2.65;89.08;95422.17;108817;1274;22527;-77
2024/01/14 05:49:43;;;;;;;8.60;5.70;;;;;;;-2.70;89.23;95419.63;108784;1273;22538;-77
2024/01/14 05:52:15;;;;;;;9.10;5.80;;;;;;;-2.71;89.56;95424.58;108806;1273;23110;-77
2024/01/14 05:54:46;;;;;;;8.80;6.30;;;;;;;-2.69;89.79;95426.58;108741;1273;22537;-77
2024/01/14 05:57:17;;;;;;;9.40;5.90;;;;;;;-2.67;90.38;95429.48;108776;1274;22534;-78
2024/01/14 05:59:50;;;;;;;7.80;5.40;;;;;;;-2.65;90.80;95430.67;108768;1274;24308;-77
2024/01/14 06:02:21;;;;;;;9.30;5.60;;;;;;;-2.68;90.65;95425.25;108758;1270;24222;-77
2024/01/14 06:04:52;;;;;;;6.80;4.80;;;;;;;-2.68;90.78;95421.27;108715;1274;22633;-77
2024/01/14 06:07:23;;;;;;;11.00;7.70;;;;;;;-2.65;91.02;95422.64;108678;1271;22519;-77
2024/01/14 06:09:54;;;;;;;8.10;5.10;;;;;;;-2.62;91.68;95421.55;108644;1273;22602;-77
2024/01/14 06:12:28;;;;;;;8.90;4.70;;;;;;;-2.61;91.66;95420.09;108663;1266;24505;-78
2024/01/14 06:15:07;;;;;;;8.90;5.40;;;;;;;-2.61;91.67;95421.00;108672;1266;22570;-78
2024/01/14 06:17:38;;;;;;;8.50;5.50;;;;;;;-2.62;91.68;95415.39;108622;1274;22535;-78
2024/01/14 06:20:14;;;;;;;12.40;8.40;;;;;;;-2.63;92.06;95412.10;108648;1272;22528;-78
2024/01/14 06:22:45;;;;;;;8.80;5.60;;;;;;;-2.64;92.20;95418.66;108703;1274;25536;-78
2024/01/14 06:25:16;;;;;;;9.10;5.50;;;;;;;-2.64;92.17;95417.38;108671;1267;22521;-78
2024/01/14 06:27:48;;;;;;;8.40;5.30;;;;;;;-2.62;92.23;95426.81;108657;1274;22541;-78
2024/01/14 06:30:19;;;;;;;11.70;4.40;;;;;;;-2.60;92.24;95430.13;108651;1273;25424;-76
2024/01/14 06:32:55;;;;;;;7.60;5.50;;;;;;;-2.60;92.18;95428.98;108635;1267;26583;-76
2024/01/14 06:35:28;;;;;;;7.50;5.30;;;;;;;-2.59;92.32;95436.82;108683;1274;22519;-75
2024/01/14 06:38:01;;;;;;;9.80;6.10;;;;;;;-2.58;92.46;95434.48;108626;1266;24227;-76
2024/01/14 06:40:33;;;;;;;6.40;4.40;;;;;;;-2.55;92.72;95426.30;108672;1263;22959;-76
2024/01/14 06:43:05;;;;;;;8.30;5.10;;;;;;;-2.52;92.83;95429.64;108634;1266;22527;-76
2024/01/14 06:45:36;;;;;;;8.20;4.60;;;;;;;-2.50;92.79;95427.45;108652;1274;22622;-76
2024/01/14 06:48:08;;;;;;;6.50;3.80;;;;;;;-2.47;92.82;95435.30;108690;1266;22548;-76
2024/01/14 06:50:42;;;;;;;5.80;3.80;;;;;;;-2.46;92.61;95439.78;108693;1274;25249;-77
2024/01/14 06:53:13;;;;;;;7.00;4.50;;;;;;;-2.41;93.16;95437.45;108639;1273;22532;-76
2024/01/14 06:55:47;;;;;;;8.20;4.80;;;;;;;-2.35;93.25;95432.04;108701;1274;22555;-76
2024/01/14 06:58:18;;;;;;;12.20;7.80;;;;;;;-2.31;92.71;95434.46;108761;1272;22553;-76
2024/01/14 07:00:54;;;;;;;8.30;4.20;;;;;;;-2.31;92.59;95430.20;108676;1272;23257;-76
2024/01/14 07:03:25;;;;;;;8.00;4.40;;;;;;;-2.33;92.38;95421.80;108779;1274;22525;-76
2024/01/14 07:05:56;;;;;;;6.90;4.40;;;;;;;-2.33;92.39;95425.96;108793;1274;22543;-76
2024/01/14 07:08:28;;;;;;;9.50;5.10;;;;;;;-2.31;92.23;95427.29;108682;1274;22540;-76
2024/01/14 07:11:07;;;;;;;5.10;3.70;;;;;;;-2.28;92.16;95421.80;108763;1274;22525;-76
2024/01/14 07:13:47;;;;;;;7.10;4.50;;;;;;;-2.25;91.97;95425.35;108757;1272;22540;-76
2024/01/14 07:16:20;;;;;;;7.00;4.10;;;;;;;-2.22;91.94;95423.18;108761;1271;23825;-76
2024/01/14 07:18:52;;;;;;;6.50;3.90;;;;;;;-2.20;91.79;95419.19;108705;1272;22520;-76
2024/01/14 07:21:25;;;;;;;7.90;4.30;;;;;;;-2.18;91.71;95421.66;108687;1271;22511;-76
2024/01/14 07:23:56;;;;;;;7.20;4.00;;;;;;;-2.13;91.78;95422.37;108701;1274;22543;-76
2024/01/14 07:26:27;;;;;;;6.50;3.60;;;;;;;-2.09;91.60;95415.89;108690;1274;22525;-76
2024/01/14 07:28:58;;;;;;;5.50;3.30;;;;;;;-2.06;91.28;95420.50;108639;1274;24230;-76
2024/01/14 07:31:31;;;;;;;5.10;3.90;;;;;;;-2.05;91.31;95414.04;108661;1270;22535;-76
2024/01/14 07:34:02;;;;;;;5.60;3.50;;;;;;;-2.05;90.99;95409.33;108651;1266;22533;-76
2024/01/14 07:36:34;;;;;;;6.80;3.90;;;;;;;-2.04;91.12;95410.31;108668;1274;22522;-76
2024/01/14 07:39:06;;;;;;;5.70;3.20;;;;;;;-2.00;90.92;95395.80;108652;1274;22531;-76
2024/01/14 07:41:40;;;;;;;7.80;4.40;;;;;;;-1.98;91.02;95405.84;108693;1272;22603;-75
2024/01/14 07:44:12;;;;;;;5.50;3.90;;;;;;;-1.99;90.75;95407.81;108812;1274;24189;-75
2024/01/14 07:46:46;;;;;;;7.70;4.50;;;;;;;-2.00;90.63;95400.73;108839;1266;23553;-75
2024/01/14 07:49:19;;;;;;;8.10;3.90;;;;;;;-2.01;90.82;95404.70;108798;1274;22527;-75
2024/01/14 07:51:53;;;;;;;9.20;5.20;;;;;;;-2.05;90.43;95398.86;108794;1270;25437;-76
2024/01/14 07:54:35;;;;;;;6.70;4.40;;;;;;;-2.11;90.60;95395.33;108756;1256;22532;-76
2024/01/14 07:57:09;;;;;;;8.90;5.00;;;;;;;-2.12;90.66;95394.06;108711;1274;22549;-75
2024/01/14 07:59:40;;;;;;;7.60;4.20;;;;;;;-2.10;90.74;95390.73;108654;1269;22538;-75
2024/01/14 08:02:11;;;;;;;10.60;4.80;;;;;;;-2.08;90.86;95393.16;108698;1274;25265;-75
2024/01/14 08:04:44;;;;;;;7.50;4.30;;;;;;;-2.06;90.72;95396.89;108673;1266;22634;-75
2024/01/14 08:07:16;;;;;;;7.40;4.60;;;;;;;-2.06;90.76;95397.61;108714;1269;25598;-75
2024/01/14 08:09:47;;;;;;;6.80;4.50;;;;;;;-2.04;90.78;95396.41;108676;1274;22562;-75
2024/01/14 08:12:18;;;;;;;6.40;3.80;;;;;;;-2.02;90.88;95389.89;108667;1274;22519;-74
2024/01/14 08:14:49;;;;;;;6.60;4.00;;;;;;;-1.98;91.10;95387.11;108681;1271;22605;-74
2024/01/14 08:17:20;;;;;;;7.40;4.60;;;;;;;-1.95;91.11;95391.50;108681;1274;22540;-75
2024/01/14 08:19:51;;;;;;;8.40;4.70;;;;;;;-1.95;91.12;95391.05;108675;1274;22615;-75
2024/01/14 08:22:22;;;;;;;6.30;4.40;;;;;;;-1.88;91.21;95394.65;108680;1272;22667;-75
2024/01/14 08:24:57;;;;;;;5.40;3.20;;;;;;;-1.71;91.29;95393.98;108655;1269;25249;-76
2024/01/14 08:27:34;;;;;;;4.80;3.00;;;;;;;-1.58;91.15;95399.07;108725;1271;22522;-77
2024/01/14 08:30:12;;;;;;;5.30;3.30;;;;;;;-1.51;91.05;95397.13;108794;1273;22600;-77
2024/01/14 08:32:44;;;;;;;7.40;3.90;;;;;;;-1.52;90.67;95398.66;108776;1265;22529;-76
2024/01/14 08:35:19;;;;;;;5.10;3.00;;;;;;;-1.60;90.12;95399.55;108779;1273;22532;-75
2024/01/14 08:37:51;;;;;;;4.20;2.60;;;;;;;-1.66;90.38;95398.36;108682;1272;25510;-75
2024/01/14 08:40:25;;;;;;;7.10;3.90;;;;;;;-1.60;90.59;95397.94;108705;1273;22547;-75
2024/01/14 08:42:58;;;;;;;7.00;4.30;;;;;;;-1.52;90.44;95391.81;108824;1266;24186;-75
2024/01/14 08:45:34;;;;;;;6.40;4.20;;;;;;;-1.41;90.12;95392.63;108844;1273;22524;-75
2024/01/14 08:48:10;;;;;;;6.80;3.80;;;;;;;-1.31;90.01;95391.77;108799;1273;22541;-75
2024/01/14 08:50:45;;;;;;;6.90;4.30;;;;;;;-1.30;89.65;95390.27;108867;1266;22661;-75
2024/01/14 08:53:18;;;;;;;6.90;4.10;;;;;;;-1.38;89.53;95396.21;108826;1273;22543;-75
2024/01/14 08:55:51;;;;;;;7.40;4.50;;;;;;;-1.53;89.09;95391.84;108886;1268;22540;-75
2024/01/14 08:58:25;;;;;;;8.00;4.80;;;;;;;-1.58;89.18;95392.26;108841;1273;24184;-75
2024/01/14 09:00:56;;;;;;;9.50;4.80;;;;;;;-1.61;89.13;95390.91;108860;1273;22640;-75
2024/01/14 09:03:31;;;;;;;6.90;4.30;;;;;;;-1.63;89.09;95397.05;108910;1273;23070;-75
2024/01/14 09:06:03;;;;;;;8.70;5.30;;;;;;;-1.70;89.08;95395.66;108782;1270;22601;-75
2024/01/14 09:08:34;;;;;;;9.90;5.90;;;;;;;-1.74;89.09;95393.83;108754;1273;22541;-76
2024/01/14 09:11:08;;;;;;;10.30;6.10;;;;;;;-1.79;89.33;95394.67;108799;1273;22538;-74
2024/01/14 09:13:45;;;;;;;9.20;5.30;;;;;;;-1.85;89.22;95394.75;108733;1267;25322;-75
2024/01/14 09:16:21;;;;;;;8.00;4.70;;;;;;;-1.90;89.50;95391.07;108855;1272;22582;-75
2024/01/14 09:18:53;;;;;;;7.50;4.30;;;;;;;-1.97;89.57;95395.55;108788;1272;22528;-76
2024/01/14 09:21:25;;;;;;;7.80;4.70;;;;;;;-2.05;89.87;95388.40;108822;1273;25416;-75
2024/01/14 09:23:57;;;;;;;8.60;4.90;;;;;;;-2.11;89.99;95401.41;108799;1266;22598;-77
2024/01/14 09:26:28;;;;;;;9.10;5.40;;;;;;;-2.12;90.50;95388.13;108876;1267;22575;-77
2024/01/14 09:29:00;;;;;;;7.70;4.50;;;;;;;-2.09;90.88;95390.13;108849;1272;83400;-77
2024/01/14 09:31:35;;;;;;;7.60;4.10;;;;;;;-2.06;91.05;95390.30;108895;1272;22553;-78
2024/01/14 09:34:10;;;;;;;5.90;3.30;;;;;;;-2.02;91.26;95393.27;108880;1273;22597;-78
2024/01/14 09:36:47;;;;;;;8.60;4.50;;;;;;;-1.99;91.57;95387.67;108827;1272;22524;-76
2024/01/14 09:39:19;;;;;;;8.70;4.40;;;;;;;-1.86;91.65;95394.42;108768;1273;24404;-76
2024/01/14 09:42:04;;;;;;;8.30;5.00;;;;;;;-1.73;91.60;95389.41;108783;1273;23927;-76
2024/01/14 09:44:35;;;;;;;6.20;3.70;;;;;;;-1.64;91.54;95396.95;108755;1272;25350;-76
2024/01/14 09:47:09;;;;;;;8.10;3.60;;;;;;;-1.58;91.47;95400.94;108743;1270;22591;-76
2024/01/14 09:49:43;;;;;;;6.60;3.70;;;;;;;-1.56;91.62;95406.59;108772;1269;24111;-76
2024/01/14 09:52:16;;;;;;;6.70;3.50;;;;;;;-1.57;91.52;95410.57;108823;1266;22538;-75
2024/01/14 09:54:48;;;;;;;5.60;3.50;;;;;;;-1.59;91.67;95403.73;108782;1274;22540;-76
2024/01/14 09:57:25;;;;;;;4.80;3.20;;;;;;;-1.59;91.63;95411.79;108711;1273;22622;-75
2024/01/14 10:00:04;;;;;;;6.10;3.40;;;;;;;-1.55;91.50;95407.91;108691;1274;22546;-76
2024/01/14 10:02:40;;;;;;;5.10;3.10;;;;;;;-1.51;91.60;95400.36;108665;1266;22633;-75
2024/01/14 10:05:13;;;;;;;4.90;2.90;;;;;;;-1.40;91.42;95396.17;108724;1273;22542;-76
2024/01/14 10:07:52;;;;;;;4.40;2.80;;;;;;;-1.32;91.47;95398.31;108617;1269;22993;-76
2024/01/14 10:10:28;;;;;;;5.70;3.80;;;;;;;-1.36;90.72;95398.55;108616;1273;24241;-75
2024/01/14 10:13:01;;;;;;;6.90;4.00;;;;;;;-1.44;90.39;95397.52;108623;1272;22518;-76
2024/01/14 10:15:35;;;;;;;5.10;2.90;;;;;;;-1.48;90.43;95396.70;108665;1273;22580;-76
2024/01/14 10:18:09;;;;;;;4.80;3.20;;;;;;;-1.52;90.15;95393.74;108668;1269;22531;-75
2024/01/14 10:20:43;;;;;;;6.70;3.90;;;;;;;-1.54;90.27;95394.02;108513;1268;22544;-75
2024/01/14 10:23:17;;;;;;;5.30;3.20;;;;;;;-1.51;90.16;95391.67;108508;1273;22546;-75
2024/01/14 10:25:49;;;;;;;4.90;3.30;;;;;;;-1.47;90.28;95384.88;108578;1274;22587;-76
2024/01/14 10:28:21;;;;;;;6.40;3.90;;;;;;;-1.43;90.13;95384.23;108502;1271;23151;-76
2024/01/14 10:30:52;;;;;;;6.10;3.70;;;;;;;-1.35;90.36;95384.58;108730;1272;22536;-75
2024/01/14 10:33:27;;;;;;;6.40;3.50;;;;;;;-1.26;89.83;95379.27;108769;1274;22538;-76
2024/01/14 10:36:02;;;;;;;7.40;3.60;;;;;;;-1.19;90.07;95375.91;108756;1274;22546;-76
2024/01/14 10:38:37;;;;;;;5.40;3.20;;;;;;;-1.11;89.69;95379.02;108639;1274;22544;-76
2024/01/14 10:41:12;;;;;;;6.70;3.40;;;;;;;-1.12;89.28;95378.95;108675;1270;22528;-77
2024/01/14 10:43:46;;;;;;;6.50;4.00;;;;;;;-1.09;89.28;95379.41;108644;1273;22563;-76
2024/01/14 10:46:18;;;;;;;7.70;3.90;;;;;;;-1.03;88.93;95385.11;108705;1270;22565;-76
2024/01/14 10:49:00;;;;;;;6.60;3.60;;;;;;;-1.00;88.88;95379.55;108575;1274;45239;-76
2024/01/14 10:51:38;;;;;;;7.10;4.10;;;;;;;-1.01;87.99;95380.27;108651;1266;24503;-76
2024/01/14 10:54:20;;;;;;;6.70;3.50;;;;;;;-0.98;88.20;95384.80;108648;1269;25363;-76
2024/01/14 10:57:04;;;;;;;7.50;4.00;;;;;;;-0.97;87.75;95383.93;108643;1274;22527;-77
2024/01/14 10:59:43;;;;;;;5.80;3.50;;;;;;;-1.00;87.52;95381.30;108638;1274;22537;-76
2024/01/14 11:02:18;;;;;;;5.90;3.10;;;;;;;-1.02;87.26;95384.97;108657;1256;24199;-76
2024/01/14 11:04:51;;;;;;;7.80;4.40;;;;;;;-1.03;87.10;95374.25;108621;1274;25291;-75
2024/01/14 11:07:28;;;;;;;6.00;3.10;;;;;;;-1.04;87.04;95376.16;108717;1272;25297;-76
2024/01/14 11:10:02;;;;;;;8.20;4.20;;;;;;;-1.08;86.84;95378.91;108702;1274;22567;-75
2024/01/14 11:12:41;;;;;;;6.20;3.70;;;;;;;-1.07;86.86;95378.23;108653;1273;22549;-76
2024/01/14 11:15:20;;;;;;;7.40;4.40;;;;;;;-1.09;86.65;95378.89;108429;1273;22534;-76
2024/01/14 11:18:02;;;;;;;7.60;3.60;;;;;;;-1.07;86.94;95382.30;108843;1273;22546;-76
2024/01/14 11:20:37;;;;;;;7.40;3.00;;;;;;;-1.06;86.61;95389.81;108629;1274;22592;-75
2024/01/14 11:23:10;;;;;;;6.10;3.20;;;;;;;-1.07;86.63;95387.24;108623;1274;24252;-76
2024/01/14 11:25:45;;;;;;;7.90;4.70;;;;;;;-1.06;86.46;95382.67;108648;1274;23839;-77
2024/01/14 11:28:17;;;;;;;6.60;4.20;;;;;;;-1.05;86.52;95378.43;108636;1273;22698;-77
2024/01/14 11:30:59;;;;;;;5.70;3.70;;;;;;;-1.05;86.40;95376.88;108675;1274;25413;-77
2024/01/14 11:33:40;;;;;;;8.40;4.70;;;;;;;-1.04;86.32;95372.62;108668;1274;25404;-77
2024/01/14 11:36:12;;;;;;;5.30;3.20;;;;;;;-1.04;86.22;95372.46;108636;1274;22520;-76
2024/01/14 11:38:57;;;;;;;5.00;3.10;;;;;;;-1.04;86.08;95373.52;108633;1270;24033;-77
2024/01/14 11:41:35;;;;;;;7.80;3.70;;;;;;;-1.03;86.24;95371.90;108619;1270;22527;-76
2024/01/14 11:44:11;;;;;;;8.60;5.30;;;;;;;-1.00;86.22;95370.90;108672;1273;22527;-77
2024/01/14 11:46:43;;;;;;;10.20;4.60;;;;;;;-0.98;86.18;95373.77;108623;1274;22533;-77
2024/01/14 11:49:22;;;;;;;8.10;4.30;;;;;;;-0.97;86.13;95371.14;108634;1270;26307;-77
2024/01/14 11:51:59;;;;;;;8.20;4.70;;;;;;;-0.94;86.25;95366.39;108709;1273;23161;-76